createdAt,value
2023-02-25T00:00:30.667Z,54.30
2023-02-25T00:02:58.040Z,54.30
2023-02-25T00:05:24.910Z,54.30
2023-02-25T00:07:51.624Z,54.40
2023-02-25T00:10:18.282Z,54.30
2023-02-25T00:12:44.986Z,54.40
2023-02-25T00:15:11.776Z,54.40
2023-02-25T00:17:53.827Z,54.20
2023-02-25T00:20:50.513Z,54.50
2023-02-25T00:26:26.338Z,54.40
2023-02-25T00:34:32.995Z,54.20
2023-02-25T00:37:05.359Z,54.20
2023-02-25T00:45:41.541Z,54.30
2023-02-25T00:48:08.342Z,54.20
2023-02-25T00:50:34.937Z,54.40
2023-02-25T00:53:01.512Z,54.30
2023-02-25T00:55:33.565Z,54.30
2023-02-25T00:58:01.175Z,54.30
2023-02-25T01:00:28.427Z,54.20
2023-02-25T01:02:55.854Z,54.30
2023-02-25T01:05:22.486Z,54.30
2023-02-25T01:07:49.138Z,54.20
2023-02-25T01:10:15.905Z,54.30
2023-02-25T01:12:42.685Z,54.30
2023-02-25T01:15:09.511Z,54.20
2023-02-25T01:17:36.682Z,54.90
2023-02-25T01:20:06.613Z,54.20
2023-02-25T01:22:33.208Z,54.20
2023-02-25T01:24:59.888Z,54.10
2023-02-25T01:27:26.470Z,54.20
2023-02-25T01:29:53.688Z,54.10
2023-02-25T01:32:20.357Z,54.10
2023-02-25T01:34:46.975Z,54.80
2023-02-25T01:37:13.591Z,54.10
2023-02-25T01:39:40.660Z,54.30
2023-02-25T01:42:12.939Z,54.10
2023-02-25T01:45:00.324Z,54.10
2023-02-25T01:47:27.449Z,54.20
2023-02-25T01:49:54.084Z,54.10
2023-02-25T01:52:21.531Z,54.20
2023-02-25T01:54:48.595Z,54.10
2023-02-25T01:57:15.523Z,54.10
2023-02-25T01:59:42.093Z,54.20
2023-02-25T02:02:09.282Z,54.00
2023-02-25T02:04:36.284Z,54.20
2023-02-25T02:07:03.216Z,54.30
2023-02-25T02:09:29.785Z,54.20
2023-02-25T02:11:56.566Z,54.10
2023-02-25T02:14:26.057Z,54.10
2023-02-25T02:17:11.457Z,54.10
2023-02-25T02:19:41.085Z,54.20
2023-02-25T02:22:27.394Z,54.10
2023-02-25T02:24:59.376Z,54.20
2023-02-25T02:27:25.947Z,54.00
2023-02-25T02:29:55.509Z,54.20
2023-02-25T02:32:34.049Z,54.00
2023-02-25T02:35:19.569Z,54.20
2023-02-25T02:38:12.812Z,54.10
2023-02-25T02:40:54.842Z,54.00
2023-02-25T02:43:41.720Z,54.00
2023-02-25T02:46:10.441Z,54.00
2023-02-25T02:48:44.813Z,54.00
2023-02-25T02:51:13.769Z,54.00
2023-02-25T02:53:42.155Z,54.00
2023-02-25T02:56:09.054Z,54.00
2023-02-25T02:58:39.728Z,53.90
2023-02-25T03:01:11.383Z,54.00
2023-02-25T03:03:39.282Z,53.90
2023-02-25T03:06:07.920Z,54.00
2023-02-25T03:08:35.964Z,54.50
2023-02-25T03:11:02.686Z,53.90
2023-02-25T03:13:29.281Z,53.90
2023-02-25T03:15:55.887Z,53.80
2023-02-25T03:18:26.588Z,54.00
2023-02-25T03:20:53.531Z,53.90
2023-02-25T03:23:22.221Z,53.80
2023-02-25T03:25:51.018Z,54.00
2023-02-25T03:28:29.924Z,53.90
2023-02-25T03:31:12.041Z,53.90
2023-02-25T03:33:48.490Z,54.00
2023-02-25T03:36:33.950Z,53.90
2023-02-25T03:39:04.574Z,54.00
2023-02-25T03:41:34.816Z,53.70
2023-02-25T03:44:01.477Z,53.80
2023-02-25T03:46:28.199Z,53.80
2023-02-25T03:48:54.853Z,53.70
2023-02-25T03:51:22.480Z,53.90
2023-02-25T03:53:50.238Z,53.80
2023-02-25T03:56:16.914Z,53.80
2023-02-25T03:58:43.694Z,53.70
2023-02-25T04:01:17.664Z,53.70
2023-02-25T04:03:44.302Z,54.30
2023-02-25T04:06:11.885Z,53.70
2023-02-25T04:08:38.507Z,53.90
2023-02-25T04:11:05.400Z,53.60
2023-02-25T04:13:32.041Z,53.70
2023-02-25T04:15:58.818Z,53.70
2023-02-25T04:18:26.747Z,53.70
2023-02-25T04:20:53.380Z,53.70
2023-02-25T04:23:19.954Z,53.70
2023-02-25T04:25:46.532Z,53.60
2023-02-25T04:28:13.173Z,53.70
2023-02-25T04:30:39.883Z,53.60
2023-02-25T04:33:06.771Z,53.60
2023-02-25T04:35:33.412Z,53.70
2023-02-25T04:38:00.031Z,53.60
2023-02-25T04:40:26.795Z,53.60
2023-02-25T04:42:53.444Z,53.60
2023-02-25T04:45:26.939Z,53.60
2023-02-25T04:47:54.215Z,53.60
2023-02-25T04:50:20.874Z,53.60
2023-02-25T04:52:47.880Z,53.60
2023-02-25T04:55:14.443Z,53.50
2023-02-25T04:57:42.784Z,53.50
2023-02-25T05:00:11.137Z,53.50
2023-02-25T05:02:37.733Z,53.50
2023-02-25T05:05:04.472Z,53.50
2023-02-25T05:07:31.095Z,54.00
2023-02-25T05:09:58.268Z,53.50
2023-02-25T05:12:24.879Z,53.40
2023-02-25T05:14:51.570Z,53.40
2023-02-25T05:17:19.134Z,53.40
2023-02-25T05:19:45.710Z,53.40
2023-02-25T05:22:12.533Z,53.40
2023-02-25T05:24:39.218Z,53.40
2023-02-25T05:27:06.189Z,53.30
2023-02-25T05:29:33.106Z,53.30
2023-02-25T05:31:59.895Z,53.20
2023-02-25T05:34:26.704Z,53.30
2023-02-25T05:36:53.274Z,53.20
2023-02-25T05:39:19.879Z,53.30
2023-02-25T05:41:46.461Z,53.30
2023-02-25T05:44:13.051Z,53.10
2023-02-25T05:46:39.683Z,53.20
2023-02-25T05:49:06.384Z,53.20
2023-02-25T05:51:33.308Z,53.20
2023-02-25T05:54:00.566Z,53.30
2023-02-25T05:56:28.362Z,53.20
2023-02-25T05:58:56.968Z,53.20
2023-02-25T06:01:24.620Z,53.10
2023-02-25T06:03:58.531Z,53.10
2023-02-25T06:06:26.798Z,53.20
2023-02-25T06:08:53.545Z,53.10
2023-02-25T06:11:21.409Z,53.10
2023-02-25T06:13:49.141Z,53.10
2023-02-25T06:16:19.007Z,53.10
2023-02-25T06:18:46.313Z,53.00
2023-02-25T06:21:14.220Z,53.10
2023-02-25T06:23:41.366Z,53.00
2023-02-25T06:26:08.496Z,53.00
2023-02-25T06:28:35.546Z,53.10
2023-02-25T06:31:02.357Z,53.00
2023-02-25T06:33:30.786Z,53.10
2023-02-25T06:35:57.527Z,53.10
2023-02-25T06:38:30.837Z,53.40
2023-02-25T06:40:57.525Z,53.40
2023-02-25T06:43:24.182Z,53.20
2023-02-25T06:45:50.971Z,53.40
2023-02-25T06:48:17.692Z,53.30
2023-02-25T06:50:44.351Z,53.40
2023-02-25T06:53:11.052Z,53.40
2023-02-25T06:55:40.783Z,53.40
2023-02-25T06:58:07.520Z,53.40
2023-02-25T07:00:34.317Z,53.10
2023-02-25T07:03:03.142Z,53.40
2023-02-25T07:05:29.910Z,53.50
2023-02-25T07:07:56.580Z,53.60
2023-02-25T07:10:23.257Z,53.50
2023-02-25T07:12:49.939Z,53.50
2023-02-25T07:15:16.613Z,53.60
2023-02-25T07:17:43.294Z,53.50
2023-02-25T07:20:10.945Z,53.10
2023-02-25T07:22:37.768Z,52.90
2023-02-25T07:25:13.611Z,53.40
2023-02-25T07:27:42.921Z,53.40
2023-02-25T07:30:13.951Z,53.30
2023-02-25T07:32:41.272Z,53.40
2023-02-25T07:35:08.661Z,53.30
2023-02-25T07:37:35.339Z,53.20
2023-02-25T07:40:02.064Z,53.30
2023-02-25T07:42:28.852Z,53.20
2023-02-25T07:44:55.591Z,53.20
2023-02-25T07:47:22.299Z,53.20
2023-02-25T07:49:49.009Z,53.20
2023-02-25T07:52:15.685Z,52.90
2023-02-25T07:54:42.429Z,53.10
2023-02-25T07:57:15.118Z,53.10
2023-02-25T07:59:44.890Z,53.10
2023-02-25T08:02:12.097Z,53.10
2023-02-25T08:04:38.913Z,53.00
2023-02-25T08:07:06.764Z,53.00
2023-02-25T08:09:33.453Z,53.00
2023-02-25T08:12:03.205Z,52.90
2023-02-25T08:14:37.155Z,53.00
2023-02-25T08:17:03.841Z,52.90
2023-02-25T08:19:30.513Z,52.90
2023-02-25T08:22:00.440Z,52.80
2023-02-25T08:24:27.150Z,52.80
2023-02-25T08:26:54.899Z,52.80
2023-02-25T08:29:22.791Z,52.80
2023-02-25T08:31:52.649Z,52.80
2023-02-25T08:34:22.725Z,52.80
2023-02-25T08:36:49.437Z,53.40
2023-02-25T08:39:17.113Z,52.80
2023-02-25T08:41:44.340Z,52.80
2023-02-25T08:44:11.227Z,52.10
2023-02-25T08:46:38.043Z,52.00
2023-02-25T08:49:05.050Z,52.30
2023-02-25T08:51:38.724Z,52.70
2023-02-25T08:54:06.748Z,52.20
2023-02-25T08:56:35.193Z,52.50
2023-02-25T08:59:01.925Z,52.70
2023-02-25T09:01:44.621Z,52.70
2023-02-25T09:04:31.866Z,52.70
2023-02-25T09:06:58.667Z,52.80
2023-02-25T09:09:25.616Z,52.70
2023-02-25T09:11:52.449Z,52.70
2023-02-25T09:14:19.397Z,52.70
2023-02-25T09:16:52.346Z,52.80
2023-02-25T09:19:19.138Z,52.50
2023-02-25T09:21:48.293Z,52.80
2023-02-25T09:24:15.582Z,52.20
2023-02-25T09:26:42.259Z,52.30
2023-02-25T09:29:09.145Z,52.80
2023-02-25T09:31:37.665Z,52.90
2023-02-25T09:34:06.341Z,53.00
2023-02-25T09:36:33.076Z,53.00
2023-02-25T09:38:59.769Z,53.00
2023-02-25T09:41:26.588Z,53.10
2023-02-25T09:44:06.764Z,53.20
2023-02-25T09:46:33.703Z,53.30
2023-02-25T09:49:05.353Z,53.40
2023-02-25T09:51:34.080Z,53.40
2023-02-25T09:54:21.283Z,53.50
2023-02-25T09:56:48.055Z,52.10
2023-02-25T09:59:15.619Z,48.00
2023-02-25T10:01:45.920Z,51.90
2023-02-25T10:04:30.381Z,52.40
2023-02-25T10:06:57.072Z,52.80
2023-02-25T10:09:43.614Z,52.80
2023-02-25T10:12:29.195Z,52.60
2023-02-25T10:15:14.575Z,52.80
2023-02-25T10:18:00.148Z,53.10
2023-02-25T10:20:39.209Z,53.00
2023-02-25T10:23:09.188Z,53.10
2023-02-25T10:25:40.696Z,53.10
2023-02-25T10:28:10.430Z,53.10
2023-02-25T10:30:46.458Z,53.10
2023-02-25T10:33:17.082Z,53.10
2023-02-25T10:35:43.777Z,53.70
2023-02-25T10:38:11.172Z,53.10
2023-02-25T10:40:38.888Z,53.00
2023-02-25T10:43:21.825Z,53.50
2023-02-25T10:45:55.271Z,53.00
2023-02-25T10:48:23.144Z,53.00
2023-02-25T10:51:05.862Z,53.00
2023-02-25T10:53:33.435Z,53.00
2023-02-25T10:56:00.169Z,53.00
2023-02-25T10:58:37.477Z,52.90
2023-02-25T11:01:07.502Z,53.10
2023-02-25T11:03:43.644Z,53.60
2023-02-25T11:06:23.272Z,53.00
2023-02-25T11:08:58.570Z,53.00
2023-02-25T11:11:26.747Z,53.10
2023-02-25T11:14:00.910Z,53.10
2023-02-25T11:16:27.837Z,53.10
2023-02-25T11:18:55.750Z,53.10
2023-02-25T11:21:32.862Z,53.00
2023-02-25T11:24:01.710Z,53.10
2023-02-25T11:26:33.046Z,53.10
2023-02-25T11:29:05.287Z,53.10
2023-02-25T11:31:35.463Z,53.10
2023-02-25T11:34:03.764Z,53.10
2023-02-25T11:36:31.716Z,53.10
2023-02-25T11:39:07.655Z,53.10
2023-02-25T11:41:34.350Z,52.70
2023-02-25T11:44:24.342Z,53.00
2023-02-25T11:47:00.162Z,53.10
2023-02-25T11:49:30.406Z,53.20
2023-02-25T11:52:05.954Z,53.10
2023-02-25T11:54:36.374Z,53.20
2023-02-25T11:57:18.389Z,53.20
2023-02-25T11:59:49.971Z,53.20
2023-02-25T12:02:35.523Z,53.40
2023-02-25T12:05:31.652Z,53.10
2023-02-25T12:08:14.202Z,53.10
2023-02-25T12:10:41.500Z,53.30
2023-02-25T12:13:08.673Z,53.20
2023-02-25T12:16:02.720Z,53.20
2023-02-25T12:19:04.014Z,53.30
2023-02-25T12:21:58.622Z,53.20
2023-02-25T12:24:37.960Z,53.20
2023-02-25T12:27:20.032Z,53.20
2023-02-25T12:30:01.195Z,53.20
2023-02-25T12:32:46.809Z,53.40
2023-02-25T12:35:23.781Z,53.30
2023-02-25T12:38:22.595Z,53.20
2023-02-25T12:41:08.385Z,53.30
2023-02-25T12:43:46.260Z,53.20
2023-02-25T12:46:17.736Z,53.20
2023-02-25T12:48:51.546Z,53.20
2023-02-25T12:51:24.115Z,53.10
2023-02-25T12:54:11.954Z,53.20
2023-02-25T12:56:59.957Z,53.10
2023-02-25T12:59:42.367Z,53.10
2023-02-25T13:02:18.411Z,53.20
2023-02-25T13:04:51.110Z,53.20
2023-02-25T13:07:20.957Z,53.20
2023-02-25T13:10:01.117Z,53.10
2023-02-25T13:12:45.541Z,53.10
2023-02-25T13:15:20.768Z,53.20
2023-02-25T13:18:05.883Z,53.10
2023-02-25T13:20:42.417Z,53.10
2023-02-25T13:23:09.672Z,53.00
2023-02-25T13:25:57.742Z,53.00
2023-02-25T13:28:47.464Z,53.00
2023-02-25T13:31:22.371Z,53.00
2023-02-25T13:34:11.452Z,53.10
2023-02-25T13:36:51.629Z,52.90
2023-02-25T13:39:39.201Z,53.00
2023-02-25T13:42:13.113Z,52.90
2023-02-25T13:44:54.086Z,52.70
2023-02-25T13:47:31.790Z,52.90
2023-02-25T13:50:19.644Z,53.10
2023-02-25T13:53:14.235Z,53.20
2023-02-25T13:55:53.599Z,53.20
2023-02-25T13:58:26.809Z,53.40
2023-02-25T14:01:15.219Z,53.40
2023-02-25T14:03:50.860Z,53.40
2023-02-25T14:06:53.472Z,53.30
2023-02-25T14:09:26.423Z,53.20
2023-02-25T14:12:12.474Z,53.80
2023-02-25T14:15:04.284Z,53.20
2023-02-25T14:17:55.711Z,53.20
2023-02-25T14:20:29.302Z,53.20
2023-02-25T14:23:16.777Z,53.10
2023-02-25T14:26:04.763Z,53.20
2023-02-25T14:28:52.962Z,53.10
2023-02-25T14:31:26.077Z,53.20
2023-02-25T14:34:18.055Z,53.20
2023-02-25T14:36:56.084Z,53.20
2023-02-25T14:39:33.171Z,53.20
2023-02-25T14:42:20.792Z,53.20
2023-02-25T14:44:48.057Z,53.20
2023-02-25T14:47:21.810Z,53.20
2023-02-25T14:50:19.874Z,53.20
2023-02-25T14:52:54.441Z,53.10
2023-02-25T14:55:53.848Z,53.10
2023-02-25T14:58:36.615Z,53.30
2023-02-25T15:01:25.507Z,53.20
2023-02-25T15:04:22.176Z,53.20
2023-02-25T15:06:55.763Z,53.20
2023-02-25T15:09:51.708Z,53.00
2023-02-25T15:12:37.145Z,53.20
2023-02-25T15:15:24.769Z,53.40
2023-02-25T15:18:11.822Z,53.70
2023-02-25T15:20:39.680Z,53.20
2023-02-25T15:23:13.032Z,52.90
2023-02-25T15:25:46.454Z,54.00
2023-02-25T15:28:45.911Z,54.10
2023-02-25T15:31:34.483Z,54.10
2023-02-25T15:34:28.576Z,53.40
2023-02-25T15:37:23.621Z,54.00
2023-02-25T15:43:00.996Z,54.20
2023-02-25T15:45:39.530Z,54.10
2023-02-25T15:48:22.402Z,54.10
2023-02-25T15:50:58.910Z,54.20
2023-02-25T15:53:41.916Z,54.20
2023-02-25T15:56:12.849Z,54.30
2023-02-25T15:58:53.158Z,54.30
2023-02-25T16:01:33.163Z,54.20
2023-02-25T16:04:06.041Z,54.30
2023-02-25T16:06:52.952Z,54.30
2023-02-25T16:09:30.887Z,54.30
2023-02-25T16:12:00.205Z,54.50
2023-02-25T16:14:39.581Z,54.50
2023-02-25T16:17:21.472Z,54.50
2023-02-25T16:20:06.404Z,54.40
2023-02-25T16:22:43.063Z,54.30
2023-02-25T16:25:22.558Z,54.50
2023-02-25T16:28:04.573Z,54.50
2023-02-25T16:30:31.455Z,54.50
2023-02-25T16:33:07.475Z,54.50
2023-02-25T16:35:39.852Z,54.50
2023-02-25T16:38:22.303Z,54.50
2023-02-25T16:40:49.199Z,54.50
2023-02-25T16:43:17.202Z,54.70
2023-02-25T16:45:45.220Z,54.50
2023-02-25T16:48:27.069Z,54.50
2023-02-25T16:50:53.968Z,53.80
2023-02-25T16:53:21.971Z,54.50
2023-02-25T16:55:48.806Z,54.60
2023-02-25T16:58:18.572Z,55.20
2023-02-25T17:01:04.060Z,54.70
2023-02-25T17:03:40.361Z,54.70
2023-02-25T17:06:08.094Z,54.60
2023-02-25T17:08:35.044Z,54.50
2023-02-25T17:11:01.995Z,54.80
2023-02-25T17:13:32.981Z,54.70
2023-02-25T17:16:00.787Z,54.50
2023-02-25T17:18:49.053Z,54.70
2023-02-25T17:21:33.782Z,54.60
2023-02-25T17:24:00.680Z,54.50
2023-02-25T17:26:27.669Z,54.70
2023-02-25T17:28:56.777Z,54.70
2023-02-25T17:31:27.095Z,54.50
2023-02-25T17:34:01.025Z,54.70
2023-02-25T17:36:28.812Z,54.60
2023-02-25T17:38:56.575Z,54.80
2023-02-25T17:41:23.325Z,54.50
2023-02-25T17:43:50.159Z,54.80
2023-02-25T17:46:36.424Z,54.70
2023-02-25T17:49:05.205Z,54.80
2023-02-25T17:51:33.708Z,54.80
2023-02-25T17:54:03.369Z,54.60
2023-02-25T17:56:30.912Z,54.80
2023-02-25T17:59:04.228Z,54.90
2023-02-25T18:01:31.897Z,54.70
2023-02-25T18:04:00.028Z,54.80
2023-02-25T18:06:30.399Z,54.90
2023-02-25T18:08:57.077Z,54.70
2023-02-25T18:11:39.429Z,54.80
2023-02-25T18:14:38.707Z,54.60
2023-02-25T18:17:12.862Z,54.80
2023-02-25T18:19:40.400Z,54.70
2023-02-25T18:22:07.627Z,54.80
2023-02-25T18:24:35.954Z,54.60
2023-02-25T18:27:02.728Z,54.60
2023-02-25T18:29:29.605Z,54.50
2023-02-25T18:31:56.577Z,54.60
2023-02-25T18:34:23.359Z,54.60
2023-02-25T18:36:50.180Z,54.60
2023-02-25T18:39:16.895Z,54.60
2023-02-25T18:41:43.641Z,54.70
2023-02-25T18:44:12.866Z,54.60
2023-02-25T18:46:39.655Z,54.70
2023-02-25T18:49:06.410Z,54.60
2023-02-25T18:51:33.302Z,54.50
2023-02-25T18:54:00.050Z,54.60
2023-02-25T18:56:27.546Z,54.50
2023-02-25T18:58:55.312Z,54.50
2023-02-25T19:01:23.835Z,54.60
2023-02-25T19:03:51.309Z,54.80
2023-02-25T19:06:19.573Z,54.50
2023-02-25T19:08:47.331Z,54.50
2023-02-25T19:11:26.587Z,54.50
2023-02-25T19:13:53.338Z,54.60
2023-02-25T19:16:20.566Z,54.60
2023-02-25T19:18:47.442Z,54.60
2023-02-25T19:21:14.680Z,54.70
2023-02-25T19:23:41.615Z,54.70
2023-02-25T19:26:08.451Z,54.50
2023-02-25T19:28:36.493Z,54.60
2023-02-25T19:31:07.122Z,54.80
2023-02-25T19:33:34.089Z,54.80
2023-02-25T19:36:04.696Z,54.70
2023-02-25T19:38:31.483Z,54.80
2023-02-25T19:41:04.564Z,54.90
2023-02-25T19:43:32.021Z,54.80
2023-02-25T19:45:58.784Z,54.70
2023-02-25T19:48:25.595Z,54.60
2023-02-25T19:50:52.424Z,54.60
2023-02-25T19:53:19.324Z,55.30
2023-02-25T19:55:46.038Z,54.60
2023-02-25T19:58:13.100Z,54.60
2023-02-25T20:00:45.770Z,54.70
2023-02-25T20:03:12.893Z,54.70
2023-02-25T20:05:40.262Z,54.50
2023-02-25T20:08:07.306Z,54.70
2023-02-25T20:10:35.316Z,54.60
2023-02-25T20:13:02.017Z,55.20
2023-02-25T20:15:28.829Z,54.60
2023-02-25T20:17:57.546Z,54.60
2023-02-25T20:20:25.811Z,54.50
2023-02-25T20:22:52.593Z,54.70
2023-02-25T20:25:19.350Z,54.70
2023-02-25T20:27:46.940Z,54.60
2023-02-25T20:30:15.313Z,54.70
2023-02-25T20:32:43.007Z,54.60
2023-02-25T20:35:15.411Z,54.60
2023-02-25T20:37:43.181Z,54.80
2023-02-25T20:40:12.011Z,54.60
2023-02-25T20:42:40.189Z,54.70
2023-02-25T20:45:07.319Z,54.70
2023-02-25T20:47:37.330Z,54.60
2023-02-25T20:50:05.657Z,54.70
2023-02-25T20:52:32.523Z,54.60
2023-02-25T20:54:59.640Z,54.70
2023-02-25T20:57:27.034Z,54.60
2023-02-25T20:59:54.283Z,54.50
2023-02-25T21:02:21.255Z,54.60
2023-02-25T21:04:47.962Z,54.50
2023-02-25T21:07:14.823Z,54.60
2023-02-25T21:09:41.673Z,54.50
2023-02-25T21:12:08.473Z,54.60
2023-02-25T21:14:35.344Z,54.50
2023-02-25T21:17:02.127Z,54.50
2023-02-25T21:19:28.948Z,54.50
2023-02-25T21:21:55.728Z,54.60
2023-02-25T21:24:24.653Z,54.60
2023-02-25T21:26:52.131Z,54.60
2023-02-25T21:29:18.970Z,54.70
2023-02-25T21:31:45.926Z,54.80
2023-02-25T21:34:16.009Z,54.90
2023-02-25T21:36:42.792Z,54.80
2023-02-25T21:39:12.734Z,54.80
2023-02-25T21:41:44.343Z,54.90
2023-02-25T21:44:12.217Z,54.80
2023-02-25T21:46:39.120Z,55.30
2023-02-25T21:49:05.875Z,54.80
2023-02-25T21:51:32.604Z,54.80
2023-02-25T21:53:59.925Z,54.80
2023-02-25T21:56:27.460Z,54.70
2023-02-25T21:58:58.551Z,54.80
2023-02-25T22:01:29.267Z,54.90
2023-02-25T22:03:56.309Z,54.90
2023-02-25T22:06:24.963Z,54.90
2023-02-25T22:08:52.031Z,54.90
2023-02-25T22:11:21.794Z,55.00
2023-02-25T22:13:48.798Z,55.10
2023-02-25T22:16:18.444Z,55.10
2023-02-25T22:18:45.337Z,55.00
2023-02-25T22:21:16.168Z,55.00
2023-02-25T22:23:45.993Z,54.90
2023-02-25T22:26:13.368Z,54.90
2023-02-25T22:28:40.782Z,54.90
2023-02-25T22:31:11.281Z,54.90
2023-02-25T22:33:38.102Z,55.10
2023-02-25T22:36:05.067Z,54.90
2023-02-25T22:38:32.421Z,54.90
2023-02-25T22:40:59.523Z,55.00
2023-02-25T22:43:26.199Z,54.90
2023-02-25T22:45:53.745Z,55.50
2023-02-25T22:48:22.790Z,55.00
2023-02-25T22:50:49.637Z,55.10
2023-02-25T22:53:16.837Z,55.10
2023-02-25T22:55:43.659Z,55.30
2023-02-25T22:58:13.221Z,55.20
2023-02-25T23:00:41.399Z,55.40
2023-02-25T23:03:08.552Z,55.40
2023-02-25T23:05:35.499Z,55.50
2023-02-25T23:08:02.482Z,55.40
2023-02-25T23:10:29.517Z,55.40
2023-02-25T23:12:57.276Z,55.90
2023-02-25T23:15:24.408Z,55.30
2023-02-25T23:17:57.488Z,55.40
2023-02-25T23:20:24.227Z,55.50
2023-02-25T23:22:52.968Z,55.60
2023-02-25T23:25:19.910Z,55.50
2023-02-25T23:27:48.804Z,55.50
2023-02-25T23:30:15.671Z,55.70
2023-02-25T23:32:42.504Z,55.70
2023-02-25T23:35:09.956Z,55.70
2023-02-25T23:37:36.730Z,55.60
2023-02-25T23:40:03.611Z,55.70
2023-02-25T23:42:30.649Z,55.60
2023-02-25T23:44:57.393Z,55.60
2023-02-25T23:47:24.231Z,55.60
2023-02-25T23:49:51.129Z,55.50
2023-02-25T23:52:17.855Z,55.70
2023-02-25T23:54:44.805Z,55.50
2023-02-25T23:57:11.544Z,55.40
2023-02-25T23:59:38.217Z,55.30
